In Rescue
 
Open Full Screen Window  High Contrast Mode
Wind Gusting 18 knots
10
January 24, 2020 8:20 PM EST
Weather Information
Wind Direction
  080 °
Wind Speed
  10 kt (12 mph)
Wind Gust
  18 kt (21 mph)
Altimeter
29.96 in
Visibility
10 SM
Temperature
02° C
36° F
Dewpoint
-03° C
27° F
Humidity
70%
1hr Rain Fall
00.00 in.
24hr Rain Fall
00.00 in.
Sky Condition
Overcast @ 7,500 ft
Broken @ 6,500 ft
Scattered @ 4,400 ft
VFR

METAR KDRM 250120Z AUTO 08010G18KT 10SM SCT044 BKN065 OVC075 02/M03 A2996 RMK AO2 T00201035

FAA Disclaimer: The data displayed is for advisory purposes only and is not to be used for flight planning or operations.